Flight Track Log - Related Links

Times and Time Zones

All times are in EDT time to prevent confusion due to time zone crossing. See the XOJ552 flight status page for this flight to view local times or setup timezone preferences in your user account.

Time Position Orientation Groundspeed Altitude Reporting Facility
EDT Latitude Longitude Course Direction KTS MPH feet Rate Location/Type
Sun 12:28:10 PM 47.5481 -122.3169 318° Northwest 178 205 900  Level Seattle Center
Sun 12:29:29 PM 47.6114 -122.4003 318° Northwest 246 283 4,000 2,391 Climbing Seattle Center
Sun 12:30:18 PM 47.6322 -122.4744 293° West 272 313 6,000 2,390 Climbing Seattle Center
Sun 12:31:27 PM 47.7089 -122.4608 North 292 336 8,700 2,215 Climbing Seattle Center
Sun 12:32:28 PM 47.6978 -122.3528 99° East 294 338 10,800 2,902 Climbing Seattle Center
Sun 12:33:29 PM 47.6422 -122.2261 123° Southeast 327 376 14,600 3,393 Climbing Seattle Center
Sun 12:34:30 PM 47.5972 -122.1206 122° Southeast 343 395 17,700 3,098 Climbing Seattle Center
Sun 12:35:31 PM 47.5475 -121.9958 121° Southeast 354 407 20,900 3,148 Climbing Seattle Center
Sun 12:36:32 PM 47.5444 -121.8406 92° East 379 436 24,100 3,098 Climbing Seattle Center
Sun 12:37:33 PM 47.5464 -121.6497 89° East 390 449 27,200 2,683 Climbing Seattle Center
Sun 12:38:35 PM 47.5483 -121.4889 89° East 396 456 29,600 2,049 Climbing Seattle Center
Sun 12:39:36 PM 47.5506 -121.3225 89° East 406 467 31,400 1,574 Climbing Seattle Center
Sun 12:40:37 PM 47.5508 -121.1500 90° East 419 482 32,800 1,475 Climbing Seattle Center
Sun 12:41:38 PM 47.5528 -120.9700 89° East 435 501 34,400 1,426 Climbing Seattle Center
Sun 12:42:39 PM 47.5544 -120.7850 89° East 446 513 35,700 1,082 Climbing Seattle Center
Sun 12:43:40 PM 47.5553 -120.5956 90° East 459 528 36,600 1,033 Climbing Seattle Center
Sun 12:44:41 PM 47.5544 -120.4031 90° East 467 537 37,800 976 Climbing Seattle Center
Sun 12:45:43 PM 47.5547 -120.2083 90° East 473 544 38,600 1,024 Climbing Seattle Center
Sun 12:46:44 PM 47.5542 -119.9739 90° East 476 548 39,900 1,180 Climbing Seattle Center
Sun 12:47:45 PM 47.5544 -119.7817 90° East 470 541 41,000 541 Climbing Seattle Center
Sun 12:48:46 PM 47.5514 -119.5867 91° East 474 545 41,000  Level Seattle Center
Sun 12:49:47 PM 47.5511 -119.3858 90° East 487 560 41,000  Level Seattle Center
Sun 12:50:48 PM 47.5494 -119.1847 91° East 490 564 41,000  Level Seattle Center
Sun 12:51:49 PM 47.5483 -118.9869 90° East 483 556 41,000  Level Seattle Center
Sun 12:52:50 PM 47.5450 -118.7917 91° East 479 551 41,000  Level Seattle Center
Sun 12:53:51 PM 47.5433 -118.5969 91° East 475 547 41,000  Level Seattle Center
Sun 12:54:53 PM 47.5400 -118.3997 91° East 480 552 41,000  Level Seattle Center
Sun 12:55:54 PM 47.5367 -118.2011 91° East 484 557 41,000  Level Seattle Center
Sun 12:56:55 PM 47.5331 -117.9997 91° East 489 563 41,000  Level Seattle Center
Sun 12:57:56 PM 47.5275 -117.7578 92° East 494 568 41,000  Level Seattle Center
Sun 12:58:59 PM 47.5236 -117.5572 92° East 493 567 41,000  Level Seattle Center
Sun 01:00:01 PM 47.5186 -117.3564 92° East 493 567 41,000  Level Seattle Center
Sun 01:01:02 PM 47.5131 -117.1639 92° East 494 568 41,000  Level Seattle Center
Sun 01:02:03 PM 47.5064 -116.9200 92° East 510 587 41,000  Level Seattle Center
Sun 01:03:04 PM 47.5014 -116.7208 92° East 499 574 41,000  Level Seattle Center
Sun 01:04:05 PM 47.4944 -116.5181 93° East 498 573 41,000  Level Seattle Center
Sun 01:05:06 PM 47.4875 -116.3164 93° East 495 570 41,000 -49 Level Seattle Center
Sun 01:06:07 PM 47.4803 -116.1133 93° East 496 571 40,900  Descending Seattle Center
Sun 01:07:08 PM 47.4725 -115.9117 93° East 495 570 41,000 49 Climbing Seattle Center
Sun 01:08:09 PM 47.4650 -115.7058 93° East 493 567 41,000  Level Seattle Center
Sun 01:09:10 PM 47.4575 -115.5056 93° East 492 566 41,000  Level Seattle Center
Sun 01:10:11 PM 47.4497 -115.3056 93° East 491 565 41,000  Level Seattle Center
Sun 01:11:13 PM 47.4392 -115.1047 94° East 493 567 41,000  Level Seattle Center
Sun 01:12:14 PM 47.4314 -114.9039 93° East 494 568 41,000  Level Seattle Center
Sun 01:13:15 PM 47.4203 -114.6639 94° East 494 568 41,000  Level Seattle Center
Sun 01:14:13 PM 47.4122 -114.5025 94° East 494 568 41,000  Level Salt Lake Center
Sun 01:15:14 PM 47.4000 -114.2639 94° East 492 566 41,000 -49 Level Salt Lake Center
Sun 01:16:16 PM 47.3897 -114.0681 94° East 486 559 40,900  Descending Salt Lake Center
Sun 01:17:18 PM 47.3786 -113.8714 95° East 485 558 41,000  Climbing Salt Lake Center
Sun 01:18:20 PM 47.3675 -113.6736 95° East 487 560 40,900  Descending Salt Lake Center
Sun 01:19:22 PM 47.3558 -113.4783 95° East 483 556 41,000 48 Climbing Salt Lake Center
Sun 01:20:24 PM 47.3411 -113.2450 95° East 481 554 41,000  Level Salt Lake Center
Sun 01:21:26 PM 47.3292 -113.0506 95° East 479 551 41,000 -48 Level Salt Lake Center
Sun 01:22:28 PM 47.3178 -112.8703 95° East 482 555 40,900  Descending Salt Lake Center
Sun 01:23:30 PM 47.3033 -112.6364 95° East 480 552 41,000 48 Climbing Salt Lake Center
Sun 01:24:32 PM 47.2900 -112.4439 96° East 477 549 41,000  Level Salt Lake Center
Sun 01:25:34 PM 47.2764 -112.2511 96° East 477 549 41,000 -48 Level Salt Lake Center
Sun 01:26:36 PM 47.2619 -112.0586 96° East 476 548 40,900 -48 Descending Salt Lake Center
Sun 01:27:39 PM 47.2489 -111.8644 96° East 480 552 40,900 48 Level Salt Lake Center
Sun 01:28:41 PM 47.2344 -111.6722 96° East 478 550 41,000 194 Climbing Salt Lake Center
Sun 01:30:00 PM 47.2155 -111.4253 96° East  Level FlightAware Approximate
Sun 01:30:45 PM 47.2011 -111.2483 96° East 481 554 41,500  Level Salt Lake Center
Sun 01:31:47 PM 47.1869 -111.0519 96° East 485 558 42,000 484 Climbing Salt Lake Center
Sun 01:32:49 PM 47.1711 -110.8558 97° East 487 560 42,500 532 Climbing Salt Lake Center
Sun 01:33:51 PM 47.1511 -110.6186 97° East 491 565 43,100 532 Climbing Salt Lake Center
Sun 01:34:53 PM 47.1333 -110.4225 98° East 490 564 43,600 484 Climbing Salt Lake Center
Sun 01:35:55 PM 47.1161 -110.2283 97° East 485 558 44,100 484 Climbing Salt Lake Center
Sun 01:36:57 PM 47.0997 -110.0339 97° East 484 557 44,600 435 Climbing Salt Lake Center
Sun 01:37:59 PM 47.0825 -109.8411 97° East 481 554 45,000 194 Climbing Salt Lake Center
Sun 01:39:01 PM 47.0661 -109.6469 97° East 482 555 45,000  Level Salt Lake Center
Sun 01:40:03 PM 47.0442 -109.4144 98° East 483 556 45,000  Level Salt Lake Center
Sun 01:41:05 PM 47.0256 -109.2203 98° East 483 556 45,000  Level Salt Lake Center
Sun 01:42:07 PM 47.0044 -109.0192 99° East 482 555 45,000  Level Salt Lake Center
Sun 01:43:09 PM 46.9850 -108.8283 98° East 477 549 45,000  Level Salt Lake Center
Sun 01:44:11 PM 46.9658 -108.6328 98° East 484 557 45,000  Level Salt Lake Center
Sun 01:45:13 PM 46.9464 -108.4403 98° East 480 552 45,000  Level Salt Lake Center
Sun 01:46:15 PM 46.9211 -108.2081 99° East 482 555 45,000  Level Salt Lake Center
Sun 01:47:17 PM 46.9011 -108.0122 98° East 486 559 45,000  Level Salt Lake Center
Sun 01:48:19 PM 46.8794 -107.8189 99° East 485 558 45,000  Level Salt Lake Center
Sun 01:49:21 PM 46.8583 -107.6244 99° East 484 557 45,000  Level Salt Lake Center
Sun 01:50:23 PM 46.8361 -107.4300 99° East 486 559 45,000  Level Salt Lake Center
Sun 01:51:25 PM 46.8136 -107.2347 99° East 488 562 45,000  Level Salt Lake Center
Sun 01:52:28 PM 46.7917 -107.0400 99° East 487 560 45,000  Level Salt Lake Center
Sun 01:53:30 PM 46.7628 -106.8047 100° East 491 565 45,000  Level Salt Lake Center
Sun 01:54:32 PM 46.7394 -106.6089 100° East 491 565 45,000  Level Salt Lake Center
Sun 01:55:34 PM 46.7150 -106.4133 100° East 492 566 45,000  Level Salt Lake Center
Sun 01:56:36 PM 46.6900 -106.2192 101° East 490 564 45,000  Level Salt Lake Center
Sun 01:57:38 PM 46.6658 -106.0242 100° East 489 563 45,000  Level Salt Lake Center
Sun 01:58:40 PM 46.6408 -105.8303 101° East 489 563 45,000  Level Salt Lake Center
Sun 01:59:42 PM 46.6103 -105.5972 101° East 489 563 45,000  Level Salt Lake Center
Sun 02:00:44 PM 46.5842 -105.4025 101° East 491 565 45,000  Level Salt Lake Center
Sun 02:01:46 PM 46.5575 -105.2061 101° East 493 567 45,000  Level Salt Lake Center
Sun 02:02:48 PM 46.5314 -105.0108 101° East 494 568 45,000  Level Salt Lake Center
Sun 02:03:50 PM 46.5050 -104.8144 101° East 496 571 45,000  Level Salt Lake Center
Sun 02:04:52 PM 46.4772 -104.6094 101° East 497 572 45,000  Level Salt Lake Center
Sun 02:05:54 PM 46.4492 -104.4125 102° East 500 575 45,000  Level Salt Lake Center
Sun 02:06:56 PM 46.4211 -104.2169 102° East 500 575 45,000  Level Salt Lake Center
Sun 02:07:58 PM 46.3878 -103.9817 102° East 499 574 45,000  Level Salt Lake Center
Sun 02:09:00 PM 46.3592 -103.7850 102° East 502 578 45,000  Level Salt Lake Center
Sun 02:10:02 PM 46.3297 -103.5872 102° East 504 580 45,000  Level Salt Lake Center
Sun 02:11:04 PM 46.3014 -103.3869 102° East 506 582 45,000  Level Salt Lake Center
Sun 02:12:06 PM 46.2717 -103.1908 102° East 506 582 45,000  Level Salt Lake Center
Sun 02:13:08 PM 46.2356 -102.9558 102° East 505 581 45,000  Level Salt Lake Center
Sun 02:14:13 PM 46.2031 -102.7669 104° East 504 580 45,000  Level Minneapolis Center
Sun 02:15:15 PM 46.1728 -102.5706 102° East 504 580 45,000  Level Minneapolis Center
Sun 02:16:17 PM 46.1414 -102.3733 103° East 505 581 45,000  Level Minneapolis Center
Sun 02:17:19 PM 46.1036 -102.1425 103° East 507 583 45,000  Level Minneapolis Center
Sun 02:18:21 PM 46.0703 -101.9461 104° East 506 582 45,000  Level Minneapolis Center
Sun 02:19:23 PM 46.0375 -101.7486 103° East 505 581 45,000  Level Minneapolis Center
Sun 02:20:25 PM 46.0042 -101.5522 104° East 505 581 45,000  Level Minneapolis Center
Sun 02:21:27 PM 45.9717 -101.3544 103° East 506 582 45,000  Level Minneapolis Center
Sun 02:22:30 PM 45.9331 -101.1144 103° East 509 586 45,000  Level Minneapolis Center
Sun 02:23:32 PM 45.8986 -100.9189 104° East 508 585 45,000  Level Minneapolis Center
Sun 02:24:34 PM 45.8639 -100.7228 104° East 505 581 45,000  Level Minneapolis Center
Sun 02:25:36 PM 45.8292 -100.5278 104° East 504 580 45,000  Level Minneapolis Center
Sun 02:26:38 PM 45.7933 -100.3328 105° East 504 580 45,000  Level Minneapolis Center
Sun 02:27:40 PM 45.7572 -100.1383 105° East 503 579 45,000  Level Minneapolis Center
Sun 02:28:42 PM 45.7222 -99.9444 104° East 503 579 45,000  Level Minneapolis Center
Sun 02:29:44 PM 45.6789 -99.7131 105° East 500 575 45,000  Level Minneapolis Center
Sun 02:30:46 PM 45.6428 -99.5169 105° East 503 579 45,000  Level Minneapolis Center
Sun 02:31:48 PM 45.6058 -99.3231 105° East 504 580 45,000  Level Minneapolis Center
Sun 02:32:50 PM 45.5692 -99.1303 105° East 503 579 45,000  Level Minneapolis Center
Sun 02:33:53 PM 45.5322 -98.9400 105° East 499 574 45,000  Level Minneapolis Center
Sun 02:34:55 PM 45.4939 -98.7494 106° East 499 574 45,000  Level Minneapolis Center
Sun 02:35:57 PM 45.4569 -98.5592 105° East 498 573 45,000  Level Minneapolis Center
Sun 02:36:59 PM 45.4156 -98.3289 104° East 499 574 45,000  Level Minneapolis Center
Sun 02:38:01 PM 45.4122 -98.1314 91° East 498 573 45,000  Level Minneapolis Center
Sun 02:39:03 PM 45.4033 -97.9244 93° East 499 574 45,000  Level Minneapolis Center
Sun 02:40:05 PM 45.3958 -97.7300 93° East 495 570 45,000  Level Minneapolis Center
Sun 02:41:07 PM 45.3881 -97.5353 93° East 493 567 45,000  Level Minneapolis Center
Sun 02:42:09 PM 45.3800 -97.3408 93° East 492 566 45,000  Level Minneapolis Center
Sun 02:43:12 PM 45.3714 -97.1469 94° East 492 566 45,000  Level Minneapolis Center
Sun 02:44:14 PM 45.3633 -96.9519 93° East 494 568 45,000  Level Minneapolis Center
Sun 02:45:16 PM 45.3528 -96.7214 94° East 489 563 45,000  Level Minneapolis Center
Sun 02:46:18 PM 45.3433 -96.5244 94° East 496 571 45,000  Level Minneapolis Center
Sun 02:47:20 PM 45.3328 -96.3328 94° East 489 563 45,000  Level Minneapolis Center
Sun 02:48:22 PM 45.3231 -96.1411 94° East 486 559 45,000  Level Minneapolis Center
Sun 02:49:24 PM 45.3133 -95.9497 94° East 485 558 45,000  Level Minneapolis Center
Sun 02:50:26 PM 45.3031 -95.7600 94° East 483 556 45,000  Level Minneapolis Center
Sun 02:51:28 PM 45.2908 -95.5322 94° East 481 554 45,000  Level Minneapolis Center
Sun 02:52:30 PM 45.2800 -95.3433 95° East 481 554 45,000  Level Minneapolis Center
Sun 02:53:33 PM 45.2689 -95.1539 95° East 481 554 45,000  Level Minneapolis Center
Sun 02:54:35 PM 45.2578 -94.9667 95° East 478 550 45,000  Level Minneapolis Center
Sun 02:55:37 PM 45.2456 -94.7786 95° East 479 551 45,000  Level Minneapolis Center
Sun 02:56:39 PM 45.2314 -94.5658 95° East 481 554 45,000  Level Minneapolis Center
Sun 02:57:41 PM 45.2183 -94.3800 96° East 476 548 45,000  Level Minneapolis Center
Sun 02:58:43 PM 45.2056 -94.1922 95° East 478 550 45,000  Level Minneapolis Center
Sun 02:59:45 PM 45.1936 -94.0067 95° East 474 545 45,000  Level Minneapolis Center
Sun 03:00:47 PM 45.1794 -93.8206 96° East 474 545 45,000  Level Minneapolis Center
Sun 03:01:49 PM 45.1664 -93.6353 96° East 473 544 45,000  Level Minneapolis Center
Sun 03:02:51 PM 45.1489 -93.4081 96° East 480 552 45,000  Level Minneapolis Center
Sun 03:03:53 PM 45.1336 -93.2203 97° East 478 550 45,000  Level Minneapolis Center
Sun 03:04:55 PM 45.1169 -93.0308 97° East 480 552 45,000  Level Minneapolis Center
Sun 03:05:57 PM 45.1003 -92.8419 97° East 481 554 45,000  Level Minneapolis Center
Sun 03:07:00 PM 45.0831 -92.6575 97° East 475 547 45,000  Level Minneapolis Center
Sun 03:08:02 PM 45.0658 -92.4714 97° East 478 550 45,000  Level Minneapolis Center
Sun 03:09:04 PM 45.0483 -92.2842 97° East 480 552 45,000  Level Minneapolis Center
Sun 03:10:06 PM 45.0239 -92.0583 99° East 484 557 45,000  Level Minneapolis Center
Sun 03:11:08 PM 45.0031 -91.8711 99° East 484 557 45,000  Level Minneapolis Center
Sun 03:12:10 PM 44.9822 -91.6825 99° East 486 559 45,000  Level Minneapolis Center
Sun 03:13:12 PM 44.9631 -91.4953 98° East 484 557 45,000  Level Minneapolis Center
Sun 03:14:14 PM 44.9417 -91.3089 99° East 483 556 45,000  Level Minneapolis Center
Sun 03:15:16 PM 44.9203 -91.1217 99° East 484 557 45,000  Level Minneapolis Center
Sun 03:16:18 PM 44.8911 -90.8978 100° East 484 557 45,000  Level Minneapolis Center
Sun 03:17:20 PM 44.8608 -90.7128 103° East 480 552 45,000  Level Minneapolis Center
Sun 03:18:23 PM 44.8306 -90.5211 102° East 482 555 45,000  Level Minneapolis Center
Sun 03:19:25 PM 44.8006 -90.3383 103° East 481 554 45,000  Level Minneapolis Center
Sun 03:20:27 PM 44.7700 -90.1550 103° East 481 554 45,000  Level Minneapolis Center
Sun 03:21:29 PM 44.7397 -89.9722 103° East 480 552 45,000  Level Minneapolis Center
Sun 03:22:43 PM 44.7089 -89.7903 103° East 479 551 45,000  Level Minneapolis Center
Sun 03:23:45 PM 44.6667 -89.5500 104° East 476 548 45,000  Level Minneapolis Center
Sun 03:24:48 PM 44.6358 -89.3678 103° East 478 550 45,000  Level Minneapolis Center
Sun 03:25:50 PM 44.6036 -89.1864 104° East 478 550 45,000  Level Minneapolis Center
Sun 03:26:52 PM 44.5714 -89.0067 104° East 476 548 45,000  Level Minneapolis Center
Sun 03:27:54 PM 44.5406 -88.8247 103° East 477 549 45,000  Level Minneapolis Center
Sun 03:28:56 PM 44.5025 -88.6139 104° East 477 549 45,000  Level Minneapolis Center
Sun 03:30:10 PM 44.4694 -88.4331 104° East 476 548 45,000  Level Minneapolis Center
Sun 03:31:12 PM 44.4300 -88.2211 105° East 480 552 45,000  Level Minneapolis Center
Sun 03:32:15 PM 44.3967 -88.0417 105° East 477 549 45,000  Level Minneapolis Center
Sun 03:33:17 PM 44.3569 -87.8319 105° East 477 549 45,000  Level Minneapolis Center
Sun 03:34:19 PM 44.3228 -87.6525 105° East 477 549 45,000  Level Minneapolis Center
Sun 03:35:21 PM 44.2886 -87.4725 105° East 478 550 45,000  Level Minneapolis Center
Sun 03:36:23 PM 44.2533 -87.2942 105° East 477 549 45,000  Level Minneapolis Center
Sun 03:37:25 PM 44.2208 -87.1264 105° East 477 549 45,000  Level Minneapolis Center
Sun 03:38:27 PM 44.1789 -86.9142 105° East 477 549 45,000  Level Minneapolis Center
Sun 03:39:29 PM 44.1500 -86.7742 106° East 475 547 45,000  Level Minneapolis Center
Sun 03:40:31 PM 44.1106 -86.5681 105° East 469 540 45,000  Level Minneapolis Center
Sun 03:41:33 PM 44.0753 -86.3964 106° East 464 534 45,000  Level Minneapolis Center
Sun 03:42:35 PM 44.0400 -86.2242 106° East 464 534 45,000  Level Minneapolis Center
Sun 03:43:38 PM 44.0053 -86.0531 106° East 461 531 45,000  Level Minneapolis Center
Sun 03:44:40 PM 43.9625 -85.8483 106° East 459 528 45,000  Level Minneapolis Center
Sun 03:45:42 PM 43.9272 -85.6783 106° East 459 528 45,000  Level Minneapolis Center
Sun 03:46:44 PM 43.8914 -85.5100 106° East 457 526 45,000  Level Minneapolis Center
Sun 03:47:46 PM 43.8558 -85.3422 106° East 454 522 45,000  Level Minneapolis Center
Sun 03:48:48 PM 43.8197 -85.1739 107° East 455 524 45,000  Level Minneapolis Center
Sun 03:49:50 PM 43.7825 -85.0056 107° East 456 525 45,000  Level Minneapolis Center
Sun 03:50:52 PM 43.7467 -84.8361 106° East 458 527 45,000  Level Minneapolis Center
Sun 03:51:54 PM 43.7011 -84.6328 107° East 461 531 45,000  Level Minneapolis Center
Sun 03:52:56 PM 43.6636 -84.4636 107° East 461 531 45,000  Level Minneapolis Center
Sun 03:53:59 PM 43.6258 -84.2939 107° East 462 532 45,000  Level Minneapolis Center
Sun 03:55:13 PM 43.5792 -84.0908 108° East 463 533 45,000  Level Minneapolis Center
Sun 03:56:15 PM 43.5417 -83.9208 107° East 464 534 45,000  Level Minneapolis Center
Sun 03:57:17 PM 43.5025 -83.7508 108° East 465 535 45,000  Level Minneapolis Center
Sun 03:57:58 PM 43.4697 -83.6208 109° East 465 535 45,000  Level Cleveland Center
Sun 03:59:00 PM 43.4289 -83.4508 108° East 467 537 45,000  Level Cleveland Center
Sun 04:00:02 PM 43.3889 -83.2803 108° East 467 537 45,000  Level Cleveland Center
Sun 04:00:43 PM 43.3500 -83.1167 108° East 470 541 45,000  Level Toronto Center
Sun 04:01:43 PM 43.3000 -82.9500 112° Southeast 470 541 45,000  Level Toronto Center
Sun 04:02:43 PM 43.2500 -82.8000 115° Southeast 470 541 45,000  Level Toronto Center
Sun 04:03:43 PM 43.2333 -82.6333 98° East 470 541 45,000  Level Toronto Center
Sun 04:04:43 PM 43.1833 -82.4667 112° Southeast 470 541 45,000  Level Toronto Center
Sun 04:05:43 PM 43.1167 -82.2833 116° Southeast 470 541 45,000  Level Toronto Center
Sun 04:06:43 PM 43.0833 -82.1167 105° East 480 552 45,000  Level Toronto Center
Sun 04:07:43 PM 43.0167 -81.9333 116° Southeast 480 552 45,000  Level Toronto Center
Sun 04:08:43 PM 42.9833 -81.7833 107° East 480 552 45,000  Level Toronto Center
Sun 04:09:43 PM 42.9333 -81.6167 112° Southeast 480 552 45,000  Level Toronto Center
Sun 04:10:43 PM 42.8833 -81.4500 112° Southeast 480 552 45,000  Level Toronto Center
Sun 04:11:43 PM 42.8333 -81.2667 110° East 470 541 45,000  Level Toronto Center
Sun 04:12:43 PM 42.7833 -81.1167 114° Southeast 470 541 45,000  Level Toronto Center
Sun 04:13:43 PM 42.7333 -80.9500 112° Southeast 460 529 45,000  Level Toronto Center
Sun 04:14:43 PM 42.7000 -80.7833 105° East 460 529 45,000  Level Toronto Center
Sun 04:15:43 PM 42.6500 -80.6333 114° Southeast 460 529 45,000  Level Toronto Center
Sun 04:16:43 PM 42.6000 -80.4667 112° Southeast 450 518 45,000  Level Toronto Center
Sun 04:18:02 PM 42.5497 -80.2883 111° Southeast 453 521 45,000  Level Cleveland Center
Sun 04:19:04 PM 42.5011 -80.1281 112° Southeast 455 524 45,000  Level Cleveland Center
Sun 04:20:06 PM 42.4533 -79.9722 113° Southeast 452 520 45,000  Level Cleveland Center
Sun 04:21:08 PM 42.4064 -79.8186 112° Southeast 448 516 45,000  Level Cleveland Center
Sun 04:22:10 PM 42.3478 -79.6306 113° Southeast 452 520 45,000  Level Cleveland Center
Sun 04:23:12 PM 42.2997 -79.4756 113° Southeast 452 520 45,000  Level Cleveland Center
Sun 04:24:14 PM 42.2506 -79.3192 113° Southeast 454 522 45,000  Level Cleveland Center
Sun 04:25:16 PM 42.2014 -79.1647 113° Southeast 452 520 45,000  Level Cleveland Center
Sun 04:26:18 PM 42.1600 -79.0047 109° East 454 522 45,000  Level Cleveland Center
Sun 04:27:20 PM 42.1203 -78.8475 109° East 448 516 45,000  Level Cleveland Center
Sun 04:28:23 PM 42.0722 -78.6575 109° East 448 516 45,000  Level Cleveland Center
Sun 04:29:25 PM 42.0319 -78.4981 109° East 450 518 45,000  Level Cleveland Center
Sun 04:30:27 PM 41.9908 -78.3392 109° East 451 519 45,000 -242 Level Cleveland Center
Sun 04:31:29 PM 41.9494 -78.1764 109° East 451 519 44,500 -1,452 Descending Cleveland Center
Sun 04:32:31 PM 41.9078 -78.0172 109° East 454 522 42,000 -2,516 Descending Cleveland Center
Sun 04:33:33 PM 41.8600 -77.8383 110° East 440 506 39,300 -2,468 Descending Cleveland Center
Sun 04:34:35 PM 41.8194 -77.6819 109° East 443 510 36,900 -2,081 Descending Cleveland Center
Sun 04:35:37 PM 41.7775 -77.5203 109° East 458 527 35,000 -803 Descending Cleveland Center
Sun 04:36:57 PM 41.7153 -77.2903 110° East 452 520 35,000  Level New York Center
Sun 04:37:57 PM 41.6700 -77.1247 110° East 472 543 35,000 -1,200 Level New York Center
Sun 04:38:57 PM 41.6267 -76.9594 109° East 472 543 32,600 -2,950 Descending New York Center
Sun 04:39:57 PM 41.5811 -76.7944 110° East 472 543 29,100 -2,950 Descending New York Center
Sun 04:40:57 PM 41.5406 -76.6494 110° East 472 543 26,700 -1,900 Descending New York Center
Sun 04:41:57 PM 41.4983 -76.4906 109° East 466 536 25,300 -1,450 Descending New York Center
Sun 04:42:57 PM 41.4558 -76.3292 109° East 459 528 23,800 -1,650 Descending New York Center
Sun 04:43:57 PM 41.4058 -76.1508 110° East 464 534 22,000 -1,600 Descending New York Center
Sun 04:44:57 PM 41.3622 -76.0064 112° Southeast 450 518 20,600 -1,350 Descending New York Center
Sun 04:45:57 PM 41.3228 -75.8622 110° East 425 489 19,300 -1,300 Descending New York Center
Sun 04:46:57 PM 41.2789 -75.7156 112° Southeast 425 489 18,000 -1,550 Descending New York Center
Sun 04:47:57 PM 41.2367 -75.5800 112° Southeast 413 475 16,200 -1,950 Descending New York Center
Sun 04:48:57 PM 41.1919 -75.4472 114° Southeast 393 452 14,100 -2,050 Descending New York Center
Sun 04:49:57 PM 41.1547 -75.3344 114° Southeast 380 437 12,100 -2,050 Descending New York Center
Sun 04:50:57 PM 41.1153 -75.2189 114° Southeast 363 418 10,000 -2,000 Descending New York Center
Sun 04:51:57 PM 41.0778 -75.1061 114° Southeast 314 361 8,100 -1,750 Descending New York Center
Sun 04:52:57 PM 41.0461 -75.0078 113° Southeast 291 335 6,500 -1,000 Descending New York Center
Sun 04:53:57 PM 41.0117 -74.9150 116° Southeast 284 327 6,100 -250 Descending New York Center
Sun 04:54:57 PM 40.9967 -74.8125 101° East 284 327 6,000 -750 Descending New York Center
Sun 04:55:57 PM 41.0022 -74.7083 86° East 279 321 4,600 -950 Descending New York Center
Sun 04:56:57 PM 41.0056 -74.6067 87° East 273 314 4,100 -550 Descending New York Center
Sun 04:57:57 PM 41.0083 -74.5189 88° East 273 314 3,500 -550 Descending New York Center
Sun 04:58:57 PM 41.0158 -74.4147 85° East 268 308 3,000 -247 Descending New York Center
Sun 04:59:34 PM 41.0167 -74.3500 89° East 282 325 3,100 -62 Climbing New York TRACON
Sun 05:00:34 PM 41.0167 -74.2500 90° East 271 312 2,900 -480 Descending New York TRACON
Sun 05:01:39 PM 41.0333 -74.1500 78° East 245 282 2,100 -384 Descending New York TRACON
Sun 05:02:39 PM 41.0167 -74.0667 105° East 233 268 2,100  Level New York TRACON
Sun 05:03:39 PM 40.9667 -74.0500 166° South 197 227 2,100 -400 Level New York TRACON
Sun 05:04:39 PM 40.9167 -74.0500 180° South 180 207 1,300 -750 Descending New York TRACON
Sun 05:05:39 PM 40.8833 -74.0500 180° South 127 146 600 -700 Descending New York TRACON
Sun 05:08:00 PM 40.8500 -74.0500 143° Southeast  Level FlightAware Approximate
Sun 05:15:00 PM 40.8501 -74.0608 143° Southeast  Level Estimated

Login

Don't have an account? Register now (free) for customized features, flight alerts, and more!